This is the latest recevied weather packets stored in our database for station/object HB9MIR-13. If no packets are shown the sender has not sent any weather packets the latest 10 day(s).
| Time | Temp. | Humidity | Pressure | Rain* | Wind** | Luminosity | Snow |
|---|---|---|---|---|---|---|---|
| 1777598335 | 4.44° C | 61% | 1023.3 hPa | 0 mm | - | 0 W/m² | - |
| 1777597660 | 5° C | 58% | 1023.3 hPa | 0 mm | - | 0 W/m² | - |
| 1777596959 | 5.56° C | 57% | 1023.4 hPa | 0 mm | - | 0 W/m² | - |
| 1777596272 | 5.56° C | 57% | 1023.4 hPa | 0 mm | - | 0 W/m² | - |
| 1777595585 | 5.56° C | 53% | 1023.4 hPa | 0 mm | - | 0 W/m² | - |
| 1777594899 | 5.56° C | 54% | 1023.3 hPa | 0 mm | - | 0 W/m² | - |
| 1777594162 | 6.67° C | 50% | 1023.2 hPa | 0 mm | - | 0 W/m² | - |
| 1777593461 | 7.22° C | 44% | 1023.1 hPa | 0 mm | - | 0 W/m² | - |
| 1777592774 | 7.78° C | 41% | 1023 hPa | 0 mm | - | 0 W/m² | - |
| 1777592086 | 9.44° C | 35% | 1022.9 hPa | 0 mm | - | 0 W/m² | - |
| 1777591398 | 9.44° C | 36% | 1022.9 hPa | 0 mm | - | 0 W/m² | - |
| 1777590711 | 8.89° C | 40% | 1022.8 hPa | 0 mm | - | 0 W/m² | - |
| 1777590021 | 10° C | 32% | 1022.7 hPa | 0 mm | - | 0 W/m² | - |
| 1777589347 | 10° C | 32% | 1022.7 hPa | 0 mm | - | 0 W/m² | - |
| 1777588647 | 10.56° C | 32% | 1022.7 hPa | 0 mm | - | 0 W/m² | - |
| 1777587958 | 10° C | 31% | 1022.7 hPa | 0 mm | - | 0 W/m² | - |
| 1777587270 | 10.56° C | 32% | 1022.6 hPa | 0 mm | - | 0 W/m² | - |
| 1777586582 | 10° C | 32% | 1022.7 hPa | 0 mm | - | 0 W/m² | - |
| 1777585845 | 10° C | 33% | 1022.6 hPa | 0 mm | - | 0 W/m² | - |
| 1777585144 | 10.56° C | 36% | 1022.4 hPa | 0 mm | - | 0 W/m² | - |
| 1777584456 | 10° C | 36% | 1022.3 hPa | 0 mm | - | 0 W/m² | - |
| 1777583768 | 10.56° C | 32% | 1022.3 hPa | 0 mm | - | 0 W/m² | - |
| 1777583080 | 11.11° C | 30% | 1022.2 hPa | 0 mm | - | 0 W/m² | - |
| 1777582393 | 12.22° C | 30% | 1022.2 hPa | 0 mm | - | 0 W/m² | - |
| 1777581704 | 11.11° C | 31% | 1022.3 hPa | 0 mm | - | 0 W/m² | - |
* Rain latest hour (hover to see other rain measurements)
** Current wind speed in m/s (hover to see current wind gust speed)